createdAt,value
2018-01-27T00:00:45.709Z,19.65
2018-01-27T00:03:13.434Z,18.05
2018-01-27T00:05:41.906Z,18.70
2018-01-27T00:08:10.451Z,16.58
2018-01-27T00:10:38.171Z,20.60
2018-01-27T00:13:05.881Z,18.67
2018-01-27T00:15:33.685Z,21.37
2018-01-27T00:18:02.170Z,21.95
2018-01-27T00:20:30.693Z,17.52
2018-01-27T00:22:58.417Z,16.55
2018-01-27T00:25:26.881Z,16.98
2018-01-27T00:27:54.594Z,20.02
2018-01-27T00:30:22.349Z,12.45
2018-01-27T00:32:50.054Z,13.43
2018-01-27T00:35:17.774Z,14.77
2018-01-27T00:37:45.517Z,14.70
2018-01-27T00:40:13.991Z,16.50
2018-01-27T00:42:42.483Z,13.00
2018-01-27T00:45:10.982Z,18.12
2018-01-27T00:47:38.702Z,14.43
2018-01-27T00:50:06.427Z,15.85
2018-01-27T00:52:34.139Z,16.83
2018-01-27T00:55:01.854Z,22.45
2018-01-27T00:57:29.562Z,14.70
2018-01-27T00:59:57.274Z,13.07
2018-01-27T01:02:24.988Z,11.30
2018-01-27T01:04:52.690Z,14.57
2018-01-27T01:07:20.451Z,15.40
2018-01-27T01:09:48.177Z,13.80
2018-01-27T01:12:15.901Z,12.77
2018-01-27T01:14:43.640Z,14.38
2018-01-27T01:17:11.382Z,17.58
2018-01-27T01:19:39.870Z,18.62
2018-01-27T01:22:08.362Z,18.02
2018-01-27T01:24:36.858Z,25.70
2018-01-27T01:27:04.582Z,26.67
2018-01-27T01:29:32.306Z,27.30
2018-01-27T01:32:00.036Z,39.67
2018-01-27T01:34:27.763Z,34.33
2018-01-27T01:36:55.493Z,33.70
2018-01-27T01:39:23.225Z,31.08
2018-01-27T01:41:51.720Z,21.00
2018-01-27T01:44:25.102Z,20.80
2018-01-27T01:46:53.634Z,23.27
2018-01-27T01:49:24.192Z,21.40
2018-01-27T01:51:51.978Z,19.23
2018-01-27T01:54:20.478Z,12.23
2018-01-27T01:56:48.205Z,19.42
2018-01-27T01:59:15.921Z,15.50
2018-01-27T02:01:43.638Z,17.20
2018-01-27T02:04:11.363Z,11.75
2018-01-27T02:06:39.094Z,14.30
2018-01-27T02:09:06.806Z,11.63
2018-01-27T02:11:34.514Z,16.70
2018-01-27T02:14:02.999Z,41.10
2018-01-27T02:16:30.717Z,34.85
2018-01-27T02:18:58.435Z,30.58
2018-01-27T02:21:26.152Z,38.10
2018-01-27T02:23:53.879Z,23.87
2018-01-27T02:26:21.593Z,27.40
2018-01-27T02:28:50.087Z,18.85
2018-01-27T02:31:18.583Z,23.02
2018-01-27T02:33:46.294Z,19.73
2018-01-27T02:36:14.010Z,16.73
2018-01-27T02:38:41.719Z,25.08
2018-01-27T02:41:09.469Z,19.15
2018-01-27T02:43:37.182Z,24.37
2018-01-27T02:46:05.662Z,25.15
2018-01-27T02:48:33.373Z,17.92
2018-01-27T02:51:01.086Z,22.75
2018-01-27T02:53:29.595Z,18.52
2018-01-27T02:55:57.358Z,17.27
2018-01-27T02:58:25.080Z,21.08
2018-01-27T03:00:52.799Z,14.43
2018-01-27T03:03:20.523Z,16.30
2018-01-27T03:05:49.138Z,15.23
2018-01-27T03:08:16.850Z,18.58
2018-01-27T03:10:44.626Z,20.55
2018-01-27T03:13:12.341Z,24.98
2018-01-27T03:15:40.055Z,21.67
2018-01-27T03:18:08.732Z,22.92
2018-01-27T03:20:36.446Z,19.05
2018-01-27T03:23:04.153Z,21.15
2018-01-27T03:25:31.913Z,18.55
2018-01-27T03:27:59.641Z,22.08
2018-01-27T03:30:27.342Z,19.00
2018-01-27T03:32:55.052Z,16.80
2018-01-27T03:35:23.542Z,17.67
2018-01-27T03:37:51.251Z,14.87
2018-01-27T03:40:19.058Z,15.05
2018-01-27T03:42:47.553Z,13.13
2018-01-27T03:45:16.047Z,16.33
2018-01-27T03:47:43.830Z,15.02
2018-01-27T03:50:11.545Z,21.30
2018-01-27T03:52:40.026Z,13.82
2018-01-27T03:55:07.781Z,13.10
2018-01-27T03:57:35.507Z,15.77
2018-01-27T04:00:03.238Z,11.90
2018-01-27T04:02:30.980Z,13.15
2018-01-27T04:04:59.542Z,13.55
2018-01-27T04:07:27.283Z,16.08
2018-01-27T04:09:54.993Z,15.45
2018-01-27T04:12:22.710Z,22.13
2018-01-27T04:14:50.425Z,18.45
2018-01-27T04:17:18.908Z,22.60
2018-01-27T04:19:47.398Z,22.60
2018-01-27T04:22:15.890Z,28.85
2018-01-27T04:24:43.594Z,21.45
2018-01-27T04:27:11.309Z,21.08
2018-01-27T04:29:39.780Z,15.43
2018-01-27T04:32:08.258Z,21.58
2018-01-27T04:34:36.741Z,15.55
2018-01-27T04:37:05.221Z,21.80
2018-01-27T04:39:33.714Z,17.87
2018-01-27T04:42:02.190Z,20.40
2018-01-27T04:44:30.665Z,14.27
2018-01-27T04:46:59.137Z,15.38
2018-01-27T04:49:26.875Z,15.70
2018-01-27T04:51:54.587Z,17.52
2018-01-27T04:54:23.066Z,11.73
2018-01-27T04:56:51.563Z,13.73
2018-01-27T04:59:19.274Z,14.45
2018-01-27T05:01:46.989Z,11.10
2018-01-27T05:04:14.709Z,13.85
2018-01-27T05:06:42.435Z,13.62
2018-01-27T05:09:10.165Z,12.50
2018-01-27T05:11:37.913Z,11.30
2018-01-27T05:14:05.622Z,14.20
2018-01-27T05:16:33.325Z,14.90
2018-01-27T05:19:01.251Z,14.13
2018-01-27T05:21:28.966Z,11.30
2018-01-27T05:23:56.686Z,10.90
2018-01-27T05:26:24.429Z,10.57
2018-01-27T05:28:52.927Z,17.77
2018-01-27T05:31:21.610Z,9.35
2018-01-27T05:33:49.321Z,12.13
2018-01-27T05:36:17.034Z,10.05
2018-01-27T05:38:44.739Z,12.20
2018-01-27T05:41:12.453Z,19.05
2018-01-27T05:43:40.184Z,12.50
2018-01-27T05:46:07.903Z,11.05
2018-01-27T05:48:35.618Z,14.38
2018-01-27T05:51:03.342Z,13.38
2018-01-27T05:53:31.054Z,19.70
2018-01-27T05:55:59.610Z,24.80
2018-01-27T05:58:27.370Z,17.98
2018-01-27T06:00:55.109Z,16.02
2018-01-27T06:03:22.828Z,12.40
2018-01-27T06:05:50.549Z,12.45
2018-01-27T06:08:18.310Z,16.75
2018-01-27T06:10:46.014Z,17.48
2018-01-27T06:13:13.708Z,15.40
2018-01-27T06:15:41.443Z,11.35
2018-01-27T06:18:09.197Z,14.63
2018-01-27T06:20:37.016Z,12.05
2018-01-27T06:23:04.838Z,11.68
2018-01-27T06:25:32.550Z,11.45
2018-01-27T06:28:00.318Z,17.25
2018-01-27T06:30:28.032Z,13.73
2018-01-27T06:32:55.744Z,16.37
2018-01-27T06:35:23.486Z,15.18
2018-01-27T06:37:51.962Z,21.12
2018-01-27T06:40:20.438Z,18.10
2018-01-27T06:42:48.914Z,108.32
2018-01-27T06:45:17.395Z,414.63
2018-01-27T06:47:45.886Z,213.32
2018-01-27T06:50:14.375Z,126.78
2018-01-27T06:52:42.854Z,155.52
2018-01-27T06:55:11.335Z,152.05
2018-01-27T06:57:39.112Z,226.85
2018-01-27T07:00:06.830Z,293.80
2018-01-27T07:02:34.550Z,185.93
2018-01-27T07:05:02.265Z,275.08
2018-01-27T07:07:29.978Z,227.52
2018-01-27T07:09:57.698Z,274.45
2018-01-27T07:12:25.414Z,162.18
2018-01-27T07:14:53.130Z,174.87
2018-01-27T07:17:20.866Z,205.10
2018-01-27T07:19:48.732Z,52.75
2018-01-27T07:22:16.600Z,115.78
2018-01-27T07:24:44.468Z,108.18
2018-01-27T07:27:12.332Z,72.90
2018-01-27T07:29:40.404Z,30.17
2018-01-27T07:32:08.271Z,86.60
2018-01-27T07:34:36.139Z,110.07
2018-01-27T07:37:04.010Z,191.68
2018-01-27T07:39:32.594Z,195.23
2018-01-27T07:42:00.314Z,290.17
2018-01-27T07:44:28.022Z,160.32
2018-01-27T07:46:55.733Z,69.20
2018-01-27T07:49:24.213Z,138.45
2018-01-27T07:51:52.702Z,143.05
2018-01-27T07:54:20.511Z,227.73
2018-01-27T07:56:48.379Z,195.02
2018-01-27T07:59:16.246Z,151.18
2018-01-27T08:01:44.113Z,180.20
2018-01-27T08:04:11.983Z,257.25
2018-01-27T08:06:39.704Z,160.52
2018-01-27T08:09:07.449Z,212.63
2018-01-27T08:11:35.947Z,158.40
2018-01-27T08:14:03.684Z,264.27
2018-01-27T08:16:31.414Z,154.80
2018-01-27T08:18:59.154Z,378.62
2018-01-27T08:21:26.887Z,477.80
2018-01-27T08:23:55.382Z,534.47
2018-01-27T08:26:23.196Z,520.40
2018-01-27T08:28:51.063Z,447.13
2018-01-27T08:31:18.794Z,296.30
2018-01-27T08:33:46.521Z,326.30
2018-01-27T08:36:14.258Z,297.50
2018-01-27T08:38:41.990Z,308.75
2018-01-27T08:41:09.889Z,96.40
2018-01-27T08:43:37.621Z,94.72
2018-01-27T08:46:05.344Z,77.15
2018-01-27T08:48:33.838Z,229.43
2018-01-27T08:51:02.330Z,184.85
2018-01-27T08:53:30.076Z,248.40
2018-01-27T08:55:58.609Z,193.87
2018-01-27T08:58:26.361Z,260.98
2018-01-27T09:00:54.117Z,35.00
2018-01-27T09:03:21.844Z,63.08
2018-01-27T09:05:49.568Z,27.90
2018-01-27T09:08:17.281Z,45.85
2018-01-27T09:10:44.989Z,26.60
2018-01-27T09:13:12.698Z,73.95
2018-01-27T09:15:40.410Z,28.65
2018-01-27T09:18:08.205Z,139.18
2018-01-27T09:20:36.075Z,82.57
2018-01-27T09:23:03.789Z,113.35
2018-01-27T09:25:32.273Z,211.48
2018-01-27T09:27:59.991Z,132.12
2018-01-27T09:30:27.712Z,176.73
2018-01-27T09:32:55.434Z,122.10
2018-01-27T09:35:23.145Z,106.10
2018-01-27T09:37:51.131Z,95.10
2018-01-27T09:40:18.898Z,43.53
2018-01-27T09:42:46.644Z,76.90
2018-01-27T09:45:14.345Z,78.18
2018-01-27T09:47:42.053Z,59.22
2018-01-27T09:50:10.531Z,50.97
2018-01-27T09:52:39.026Z,34.70
2018-01-27T09:55:06.829Z,30.00
2018-01-27T09:57:34.697Z,43.75
2018-01-27T10:00:02.565Z,30.35
2018-01-27T10:02:30.431Z,56.53
2018-01-27T10:04:58.402Z,40.92
2018-01-27T10:07:26.268Z,30.98
2018-01-27T10:09:54.136Z,26.40
2018-01-27T10:12:21.881Z,31.00
2018-01-27T10:14:49.602Z,32.25
2018-01-27T10:17:18.083Z,32.40
2018-01-27T10:19:46.732Z,25.40
2018-01-27T10:22:14.603Z,26.05
2018-01-27T10:24:42.466Z,31.85
2018-01-27T10:27:10.333Z,23.70
2018-01-27T10:29:38.200Z,24.30
2018-01-27T10:32:06.068Z,22.75
2018-01-27T10:34:33.935Z,26.00
2018-01-27T10:37:01.803Z,30.48
2018-01-27T10:39:29.670Z,40.83
2018-01-27T10:41:57.537Z,75.82
2018-01-27T10:44:25.257Z,63.65
2018-01-27T10:46:53.742Z,92.25
2018-01-27T10:49:21.510Z,48.47
2018-01-27T10:51:49.282Z,32.30
2018-01-27T10:54:17.009Z,37.55
2018-01-27T10:56:44.725Z,35.13
2018-01-27T10:59:12.609Z,29.37
2018-01-27T11:01:40.477Z,55.00
2018-01-27T11:04:08.349Z,59.30
2018-01-27T11:06:36.085Z,81.53
2018-01-27T11:09:03.879Z,52.58
2018-01-27T11:11:31.602Z,94.37
2018-01-27T11:13:59.323Z,127.65
2018-01-27T11:16:32.706Z,34.03
2018-01-27T11:19:00.432Z,82.10
2018-01-27T11:21:28.154Z,87.00
2018-01-27T11:23:55.887Z,123.15
2018-01-27T11:26:23.763Z,93.40
2018-01-27T11:28:51.626Z,62.92
2018-01-27T11:31:19.492Z,76.12
2018-01-27T11:33:47.359Z,41.10
2018-01-27T11:36:15.226Z,53.65
2018-01-27T11:38:43.094Z,44.03
2018-01-27T11:41:10.822Z,52.65
2018-01-27T11:43:38.542Z,41.88
2018-01-27T11:46:06.286Z,54.83
2018-01-27T11:48:34.154Z,32.35
2018-01-27T11:51:02.021Z,70.45
2018-01-27T11:53:29.888Z,146.65
2018-01-27T11:55:57.756Z,36.15
2018-01-27T11:58:25.512Z,45.67
2018-01-27T12:00:53.250Z,46.97
2018-01-27T12:03:21.019Z,48.30
2018-01-27T12:05:48.746Z,29.50
2018-01-27T12:08:17.404Z,31.87
2018-01-27T12:10:45.331Z,31.23
2018-01-27T12:13:14.056Z,39.22
2018-01-27T12:15:41.923Z,37.38
2018-01-27T12:18:09.826Z,45.45
2018-01-27T12:20:38.477Z,46.17
2018-01-27T12:23:26.966Z,37.20
2018-01-27T12:26:02.840Z,41.45
2018-01-27T12:28:32.339Z,52.75
2018-01-27T12:31:02.265Z,30.37
2018-01-27T12:33:31.127Z,39.75
2018-01-27T12:36:01.390Z,37.75
2018-01-27T12:38:29.186Z,36.85
2018-01-27T12:40:56.893Z,31.30
2018-01-27T12:43:25.365Z,38.78
2018-01-27T12:45:54.688Z,41.17
2018-01-27T12:48:22.497Z,36.70
2018-01-27T12:50:50.364Z,42.88
2018-01-27T12:53:18.077Z,45.10
2018-01-27T12:55:46.691Z,35.97
2018-01-27T12:58:14.615Z,36.95
2018-01-27T13:00:43.273Z,37.35
2018-01-27T13:03:11.136Z,35.20
2018-01-27T13:05:38.866Z,43.65
2018-01-27T13:08:06.663Z,39.00
2018-01-27T13:10:34.532Z,44.92
2018-01-27T13:13:02.398Z,45.92
2018-01-27T13:15:30.266Z,49.60
2018-01-27T13:17:58.132Z,34.53
2018-01-27T13:20:26.002Z,46.65
2018-01-27T13:22:54.176Z,59.95
2018-01-27T13:25:23.988Z,35.17
2018-01-27T13:27:52.590Z,53.42
2018-01-27T13:30:20.523Z,45.55
2018-01-27T13:32:48.511Z,45.80
2018-01-27T13:35:17.197Z,33.55
2018-01-27T13:37:45.065Z,44.67
2018-01-27T13:40:12.936Z,49.00
2018-01-27T13:42:40.702Z,56.67
2018-01-27T13:45:08.564Z,42.42
2018-01-27T13:47:36.432Z,36.85
2018-01-27T13:50:04.311Z,49.03
2018-01-27T13:52:32.166Z,52.47
2018-01-27T13:55:00.036Z,49.95
2018-01-27T13:57:28.720Z,59.55
2018-01-27T13:59:56.431Z,39.88
2018-01-27T14:02:24.909Z,42.95
2018-01-27T14:04:53.394Z,45.47
2018-01-27T14:07:21.961Z,53.45
2018-01-27T14:09:49.798Z,46.13
2018-01-27T14:12:17.506Z,60.97
2018-01-27T14:14:46.147Z,42.05
2018-01-27T14:17:14.118Z,43.25
2018-01-27T14:19:41.987Z,57.25
2018-01-27T14:22:09.905Z,56.55
2018-01-27T14:24:37.625Z,58.90
2018-01-27T14:27:05.486Z,44.65
2018-01-27T14:29:33.351Z,48.75
2018-01-27T14:32:01.077Z,40.25
2018-01-27T14:34:28.787Z,46.97
2018-01-27T14:36:57.306Z,40.12
2018-01-27T14:39:25.789Z,41.08
2018-01-27T14:41:54.267Z,48.78
2018-01-27T14:44:22.758Z,52.58
2018-01-27T14:46:50.466Z,77.87
2018-01-27T14:49:18.176Z,50.53
2018-01-27T14:51:46.692Z,112.22
2018-01-27T14:56:49.207Z,64.22
2018-01-27T14:59:16.926Z,62.17
2018-01-27T15:01:45.426Z,54.40
2018-01-27T15:04:13.174Z,48.60
2018-01-27T15:06:41.088Z,57.92
2018-01-27T15:09:08.955Z,44.42
2018-01-27T15:11:37.330Z,52.83
2018-01-27T15:14:05.202Z,48.38
2018-01-27T15:16:33.070Z,46.03
2018-01-27T15:19:00.784Z,60.67
2018-01-27T15:21:29.419Z,49.45
2018-01-27T15:23:57.134Z,51.30
2018-01-27T15:26:24.861Z,48.00
2018-01-27T15:28:52.565Z,40.88
2018-01-27T15:31:20.337Z,43.80
2018-01-27T15:33:48.130Z,44.28
2018-01-27T15:36:16.012Z,41.28
2018-01-27T15:38:43.732Z,53.80
2018-01-27T15:41:11.445Z,43.10
2018-01-27T15:43:39.151Z,42.50
2018-01-27T15:46:07.731Z,38.50
2018-01-27T15:48:36.369Z,50.90
2018-01-27T15:51:04.074Z,50.55
2018-01-27T15:53:32.724Z,48.33
2018-01-27T15:56:00.585Z,44.83
2018-01-27T15:58:28.453Z,48.08
2018-01-27T16:00:56.325Z,54.25
2018-01-27T16:03:24.188Z,65.55
2018-01-27T16:05:52.054Z,63.75
2018-01-27T16:08:19.923Z,53.30
2018-01-27T16:10:48.609Z,109.43
2018-01-27T16:13:17.765Z,96.32
2018-01-27T16:15:45.853Z,86.65
2018-01-27T16:18:13.663Z,60.08
2018-01-27T16:20:41.398Z,128.60
2018-01-27T16:23:09.133Z,68.72
2018-01-27T16:25:36.859Z,79.37
2018-01-27T16:28:04.702Z,108.05
2018-01-27T16:30:32.571Z,148.57
2018-01-27T16:33:00.438Z,91.85
2018-01-27T16:35:28.305Z,173.65
2018-01-27T16:37:56.172Z,107.55
2018-01-27T16:40:23.898Z,97.10
2018-01-27T16:42:51.646Z,70.28
2018-01-27T16:45:20.133Z,69.53
2018-01-27T16:47:48.639Z,78.90
2018-01-27T16:50:16.369Z,119.72
2018-01-27T16:52:44.884Z,189.50
2018-01-27T16:55:12.618Z,142.93
2018-01-27T16:57:41.105Z,144.10
2018-01-27T17:00:09.606Z,134.50
2018-01-27T17:02:37.347Z,125.35
2018-01-27T17:05:05.274Z,196.57
2018-01-27T17:07:33.140Z,201.32
2018-01-27T17:10:01.007Z,133.60
2018-01-27T17:12:28.875Z,183.30
2018-01-27T17:14:56.742Z,186.55
2018-01-27T17:17:24.610Z,193.65
2018-01-27T17:19:52.329Z,157.85
2018-01-27T17:22:20.049Z,185.18
2018-01-27T17:24:47.761Z,113.00
2018-01-27T17:27:15.485Z,129.00
2018-01-27T17:29:43.332Z,103.55
2018-01-27T17:32:11.199Z,87.45
2018-01-27T17:34:38.905Z,92.03
2018-01-27T17:37:07.399Z,118.28
2018-01-27T17:39:35.114Z,105.05
2018-01-27T17:42:02.975Z,87.25
2018-01-27T17:44:30.842Z,93.28
2018-01-27T17:46:58.709Z,103.62
2018-01-27T17:49:26.576Z,96.18
2018-01-27T17:51:54.443Z,101.75
2018-01-27T17:54:22.311Z,89.13
2018-01-27T17:56:50.031Z,80.87
2018-01-27T17:59:17.842Z,89.75
2018-01-27T18:01:45.708Z,83.45
2018-01-27T18:04:13.576Z,90.12
2018-01-27T18:06:41.444Z,78.95
2018-01-27T18:09:09.310Z,104.95
2018-01-27T18:11:37.023Z,87.10
2018-01-27T18:14:05.660Z,86.30
2018-01-27T18:16:33.527Z,83.70
2018-01-27T18:19:01.394Z,81.43
2018-01-27T18:21:29.261Z,58.70
2018-01-27T18:23:57.744Z,66.55
2018-01-27T18:26:26.532Z,58.42
2018-01-27T18:28:54.400Z,71.10
2018-01-27T18:31:22.266Z,71.55
2018-01-27T18:33:50.299Z,82.95
2018-01-27T18:36:18.104Z,79.10
2018-01-27T18:38:47.557Z,99.18
2018-01-27T18:41:16.192Z,79.97
2018-01-27T18:43:44.163Z,90.50
2018-01-27T18:46:12.030Z,86.75
2018-01-27T18:48:39.898Z,84.28
2018-01-27T18:51:07.622Z,87.45
2018-01-27T18:53:35.351Z,92.00
2018-01-27T18:56:03.193Z,107.32
2018-01-27T18:58:31.060Z,129.75
2018-01-27T19:00:58.927Z,123.43
2018-01-27T19:03:26.794Z,143.35
2018-01-27T19:05:55.380Z,134.00
2018-01-27T19:08:23.248Z,144.30
2018-01-27T19:10:51.113Z,130.30
2018-01-27T19:13:19.799Z,142.57
2018-01-27T19:15:47.667Z,129.48
2018-01-27T19:18:15.637Z,136.25
2018-01-27T19:20:43.504Z,136.40
2018-01-27T19:23:11.371Z,135.75
2018-01-27T19:25:40.530Z,122.13
2018-01-27T19:28:08.950Z,108.93
2018-01-27T19:30:38.637Z,130.95
2018-01-27T19:33:06.461Z,111.90
2018-01-27T19:35:35.111Z,109.15
2018-01-27T19:38:02.978Z,109.95
2018-01-27T19:40:32.112Z,104.93
2018-01-27T19:43:01.876Z,108.05
2018-01-27T19:45:30.574Z,108.55
2018-01-27T19:47:58.307Z,98.90
2018-01-27T19:50:26.108Z,105.60
2018-01-27T19:52:53.971Z,103.22
2018-01-27T19:55:21.839Z,108.85
2018-01-27T19:57:49.706Z,91.90
2018-01-27T20:00:17.504Z,106.22
2018-01-27T20:02:45.338Z,87.95
2018-01-27T20:05:13.206Z,89.00
2018-01-27T20:07:41.073Z,92.22
2018-01-27T20:10:08.940Z,94.72
2018-01-27T20:12:36.808Z,95.07
2018-01-27T20:15:04.675Z,89.72
2018-01-27T20:17:32.542Z,85.25
2018-01-27T20:20:00.413Z,87.72
2018-01-27T20:22:28.279Z,88.93
2018-01-27T20:24:56.144Z,91.95
2018-01-27T20:27:24.014Z,89.40
2018-01-27T20:29:52.698Z,101.75
2018-01-27T20:32:20.565Z,93.35
2018-01-27T20:34:48.433Z,80.70
2018-01-27T20:37:16.711Z,87.45
2018-01-27T20:39:44.577Z,98.28
2018-01-27T20:42:12.445Z,96.05
2018-01-27T20:44:40.417Z,94.62
2018-01-27T20:47:08.281Z,92.32
2018-01-27T20:49:36.151Z,104.78
2018-01-27T20:52:03.957Z,89.82
2018-01-27T20:54:32.602Z,92.78
2018-01-27T20:57:00.468Z,86.05
2018-01-27T20:59:28.337Z,96.22
2018-01-27T21:01:56.202Z,111.30
2018-01-27T21:04:24.069Z,91.65
2018-01-27T21:06:51.937Z,99.10
2018-01-27T21:09:19.804Z,98.15
2018-01-27T21:11:47.672Z,101.90
2018-01-27T21:14:15.538Z,95.95
2018-01-27T21:16:43.410Z,92.85
2018-01-27T21:19:11.269Z,105.93
2018-01-27T21:21:39.146Z,84.75
2018-01-27T21:24:07.008Z,84.28
2018-01-27T21:26:34.879Z,79.05
2018-01-27T21:29:02.743Z,83.87
2018-01-27T21:31:30.610Z,76.90
2018-01-27T21:33:58.477Z,69.60
2018-01-27T21:36:26.345Z,74.15
2018-01-27T21:38:54.212Z,67.00
2018-01-27T21:41:22.080Z,67.53
2018-01-27T21:43:49.947Z,55.50
2018-01-27T21:46:17.813Z,60.20
2018-01-27T21:48:45.681Z,58.35
2018-01-27T21:51:13.549Z,64.55
2018-01-27T21:53:41.723Z,55.42
2018-01-27T21:56:09.592Z,55.92
2018-01-27T21:58:37.458Z,64.45
2018-01-27T22:01:05.427Z,57.28
2018-01-27T22:03:33.401Z,53.65
2018-01-27T22:06:01.264Z,52.70
2018-01-27T22:08:29.132Z,48.58
2018-01-27T22:10:56.999Z,52.40
2018-01-27T22:13:24.867Z,52.50
2018-01-27T22:15:52.736Z,54.53
2018-01-27T22:18:20.601Z,57.38
2018-01-27T22:20:48.468Z,62.67
2018-01-27T22:23:16.336Z,57.45
2018-01-27T22:25:44.203Z,51.08
2018-01-27T22:28:12.070Z,51.58
2018-01-27T22:30:39.825Z,52.30
2018-01-27T22:33:07.702Z,52.67
2018-01-27T22:35:35.413Z,55.08
2018-01-27T22:38:04.052Z,53.03
2018-01-27T22:40:32.339Z,53.20
2018-01-27T22:43:00.300Z,53.80
2018-01-27T22:45:28.165Z,58.78
2018-01-27T22:47:56.034Z,59.70
2018-01-27T22:50:23.901Z,53.97
2018-01-27T22:52:51.767Z,61.85
2018-01-27T22:55:19.481Z,62.22
2018-01-27T22:57:47.208Z,59.55
2018-01-27T23:00:14.938Z,57.33
2018-01-27T23:02:42.657Z,52.20
2018-01-27T23:05:10.374Z,55.03
2018-01-27T23:07:38.101Z,55.58
2018-01-27T23:10:06.597Z,52.97
2018-01-27T23:12:34.310Z,50.78
2018-01-27T23:15:02.031Z,51.72
2018-01-27T23:17:29.741Z,61.05
2018-01-27T23:19:57.592Z,64.70
2018-01-27T23:22:25.458Z,62.40
2018-01-27T23:24:53.325Z,61.88
2018-01-27T23:27:21.195Z,68.22
2018-01-27T23:29:49.061Z,57.10
2018-01-27T23:32:16.784Z,62.05
2018-01-27T23:34:44.497Z,59.92
2018-01-27T23:37:12.216Z,60.33
2018-01-27T23:39:39.925Z,56.58
2018-01-27T23:42:07.643Z,63.58
2018-01-27T23:44:35.364Z,58.40
2018-01-27T23:47:03.099Z,65.15
2018-01-27T23:49:30.819Z,59.58
2018-01-27T23:51:59.295Z,63.95
2018-01-27T23:54:27.781Z,59.45
2018-01-27T23:56:56.253Z,60.17
2018-01-27T23:59:24.766Z,52.92
